Time;durP1;ratioP1;P1;durP2;ratioP2;P2;SDS_P1;SDS_P2;PMS_P1;PMS_P2;Temp;Humidity;BMP_temperature;BMP_pressure;BME280_temperature;BME280_humidity;BME280_pressure;Samples;Min_cycle;Max_cycle;Signal;HPM_P1;HPM_P2
2023/01/24 00:00:38;;;;;;;18.45;13.20;;;5.40;99.90;;;;;;5031716;28;20044;-73
2023/01/24 00:03:04;;;;;;;21.45;14.40;;;5.50;99.90;;;;;;5031709;28;20034;-73
2023/01/24 00:05:33;;;;;;;18.25;13.70;;;5.50;99.90;;;;;;5032845;28;20037;-72
2023/01/24 00:07:59;;;;;;;17.85;13.20;;;5.40;99.90;;;;;;5033106;28;20038;-72
2023/01/24 00:10:25;;;;;;;17.73;13.35;;;5.50;99.90;;;;;;5015439;28;20496;-72
2023/01/24 00:12:51;;;;;;;18.17;13.10;;;5.50;99.90;;;;;;5015163;28;20025;-72
2023/01/24 00:15:16;;;;;;;16.48;12.77;;;5.50;99.80;;;;;;5031583;28;20039;-72
2023/01/24 00:17:42;;;;;;;18.98;13.93;;;5.50;99.80;;;;;;5032831;28;20030;-72
2023/01/24 00:20:08;;;;;;;16.55;12.50;;;5.50;99.80;;;;;;5031608;28;20026;-72
2023/01/24 00:22:34;;;;;;;15.77;12.73;;;5.50;99.90;;;;;;5015137;28;20374;-72
2023/01/24 00:25:00;;;;;;;17.05;12.02;;;5.50;99.70;;;;;;5036385;28;20033;-72
2023/01/24 00:27:25;;;;;;;17.23;11.85;;;5.50;99.70;;;;;;5019543;28;20255;-72
2023/01/24 00:29:51;;;;;;;16.00;12.27;;;5.60;99.70;;;;;;5035783;28;20036;-72
2023/01/24 00:32:17;;;;;;;15.43;11.27;;;5.60;99.60;;;;;;5035776;28;20056;-72
2023/01/24 00:34:42;;;;;;;11.88;9.25;;;5.60;99.60;;;;;;5035477;28;20116;-72
2023/01/24 00:37:08;;;;;;;14.35;9.70;;;5.50;99.20;;;;;;5036303;28;20033;-72
2023/01/24 00:39:34;;;;;;;13.98;10.60;;;5.50;99.10;;;;;;5034928;28;20030;-73
2023/01/24 00:41:59;;;;;;;15.25;11.20;;;5.50;99.10;;;;;;5002268;28;20037;-72
2023/01/24 00:44:25;;;;;;;16.15;10.73;;;5.50;99.10;;;;;;5034938;28;20035;-72
2023/01/24 00:46:52;;;;;;;14.07;10.27;;;5.50;99.20;;;;;;5035301;28;20038;-72
2023/01/24 00:49:17;;;;;;;17.42;11.73;;;5.50;99.10;;;;;;5002306;28;20521;-72
2023/01/24 00:51:43;;;;;;;14.93;11.07;;;5.50;99.20;;;;;;5036366;28;20101;-73
2023/01/24 00:54:09;;;;;;;14.27;10.80;;;5.40;99.40;;;;;;5018429;28;20030;-72
2023/01/24 00:56:34;;;;;;;14.65;10.85;;;5.40;99.40;;;;;;5035851;28;20053;-73
2023/01/24 00:59:00;;;;;;;14.90;10.10;;;5.40;99.40;;;;;;5034749;28;20504;-73
2023/01/24 01:01:25;;;;;;;14.77;10.73;;;5.40;99.40;;;;;;5036194;28;20393;-73
2023/01/24 01:03:55;;;;;;;15.65;11.32;;;5.40;99.40;;;;;;5036151;28;20037;-73
2023/01/24 01:06:21;;;;;;;14.88;11.13;;;5.40;99.40;;;;;;5019062;28;20099;-73
2023/01/24 01:08:47;;;;;;;15.57;10.60;;;5.40;99.60;;;;;;5037366;28;20030;-73
2023/01/24 01:11:12;;;;;;;14.32;10.48;;;5.40;99.80;;;;;;5037106;28;20029;-73
2023/01/24 01:13:38;;;;;;;16.33;11.27;;;5.40;99.90;;;;;;5036073;28;20061;-73
2023/01/24 01:16:07;;;;;;;16.00;11.23;;;5.40;99.70;;;;;;5034657;28;20068;-73
2023/01/24 01:18:34;;;;;;;15.52;11.55;;;5.40;99.70;;;;;;5018260;28;20037;-73
2023/01/24 01:20:59;;;;;;;16.20;11.25;;;5.40;99.60;;;;;;5035656;28;20040;-73
2023/01/24 01:23:25;;;;;;;15.52;11.48;;;5.40;99.70;;;;;;5035395;28;20030;-73
2023/01/24 01:25:51;;;;;;;19.20;12.77;;;5.40;99.90;;;;;;5017936;28;20508;-74
2023/01/24 01:28:16;;;;;;;16.85;12.07;;;5.40;99.80;;;;;;5035174;28;20429;-73
2023/01/24 01:30:42;;;;;;;18.90;12.25;;;5.30;99.90;;;;;;5017837;28;20438;-73
2023/01/24 01:33:08;;;;;;;17.10;11.95;;;5.30;99.90;;;;;;5035442;28;20026;-73
2023/01/24 01:35:33;;;;;;;16.90;12.20;;;5.20;99.90;;;;;;5035249;28;20033;-73
2023/01/24 01:37:59;;;;;;;16.45;11.73;;;5.30;99.90;;;;;;5017843;28;20103;-74
2023/01/24 01:40:25;;;;;;;16.70;11.75;;;5.30;99.90;;;;;;5035322;28;20037;-73
2023/01/24 01:42:53;;;;;;;16.13;11.85;;;5.40;99.90;;;;;;5034586;28;20025;-73
2023/01/24 01:45:41;;;;;;;19.75;12.90;;;5.40;99.90;;;;;;5035845;28;20115;-73
2023/01/24 01:48:35;;;;;;;17.52;12.85;;;5.40;99.90;;;;;;5035220;28;20446;-73
2023/01/24 01:51:16;;;;;;;17.88;12.27;;;5.40;99.90;;;;;;5035211;28;20075;-73
2023/01/24 01:54:16;;;;;;;15.50;11.57;;;5.40;99.90;;;;;;5034047;28;20022;-73
2023/01/24 01:56:48;;;;;;;18.98;13.32;;;5.40;99.90;;;;;;5034843;28;20049;-73
2023/01/24 01:59:18;;;;;;;19.65;13.00;;;5.30;99.90;;;;;;5035047;28;20073;-73
2023/01/24 02:01:45;;;;;;;17.20;12.00;;;5.20;99.90;;;;;;5034903;28;20473;-73
2023/01/24 02:04:16;;;;;;;16.08;11.90;;;5.20;99.90;;;;;;5034847;28;20030;-72
2023/01/24 02:07:07;;;;;;;17.77;12.48;;;5.10;99.90;;;;;;5034912;28;20080;-73
2023/01/24 02:09:39;;;;;;;18.92;12.25;;;5.10;99.90;;;;;;5035170;28;20017;-73
2023/01/24 02:12:11;;;;;;;17.17;12.43;;;5.20;99.90;;;;;;5033864;28;20060;-73
2023/01/24 02:17:22;;;;;;;18.42;12.73;;;5.00;99.90;;;;;;5033697;28;20040;-73
2023/01/24 02:20:16;;;;;;;16.75;12.05;;;5.00;99.90;;;;;;5033270;28;20026;-73
2023/01/24 02:22:56;;;;;;;18.33;12.90;;;4.90;99.90;;;;;;5034795;28;20116;-73
2023/01/24 02:25:42;;;;;;;18.92;13.40;;;5.00;99.90;;;;;;5034554;28;20473;-73
2023/01/24 02:28:08;;;;;;;20.77;13.57;;;5.00;99.90;;;;;;5033069;28;20036;-73
2023/01/24 02:30:36;;;;;;;20.23;14.55;;;5.00;99.90;;;;;;5034395;28;20025;-73
2023/01/24 02:33:19;;;;;;;21.27;14.25;;;5.00;99.90;;;;;;5034345;28;20029;-73
2023/01/24 02:35:46;;;;;;;20.00;13.32;;;4.90;99.90;;;;;;5033463;28;20029;-73
2023/01/24 02:38:24;;;;;;;19.35;14.05;;;4.90;99.90;;;;;;5034523;28;20104;-73
2023/01/24 02:40:56;;;;;;;20.60;14.00;;;4.90;99.90;;;;;;5033342;28;20144;-73
2023/01/24 02:43:25;;;;;;;21.42;14.68;;;4.80;99.90;;;;;;5033298;28;20029;-73
2023/01/24 02:45:51;;;;;;;21.85;14.88;;;4.80;99.90;;;;;;5033018;28;20474;-73
2023/01/24 02:48:16;;;;;;;21.55;14.57;;;4.90;99.90;;;;;;5040336;28;20048;-74
2023/01/24 02:53:29;;;;;;;20.73;14.18;;;4.90;99.90;;;;;;5036650;28;20039;-73
2023/01/24 02:58:44;;;;;;;23.15;15.45;;;4.80;99.90;;;;;;5034451;28;20033;-73
2023/01/24 03:01:11;;;;;;;22.65;15.88;;;4.80;99.90;;;;;;5032776;28;20040;-73
2023/01/24 03:03:37;;;;;;;23.10;16.08;;;4.90;99.90;;;;;;5032698;28;20033;-73
2023/01/24 03:06:03;;;;;;;22.70;15.40;;;4.80;99.90;;;;;;5033711;28;20112;-73
2023/01/24 03:08:31;;;;;;;24.20;15.57;;;4.90;99.90;;;;;;5016139;28;20129;-73
2023/01/24 03:10:57;;;;;;;24.50;16.58;;;4.90;99.90;;;;;;5033685;28;20032;-74
2023/01/24 03:35:18;;;;;;;25.90;17.48;;;4.80;99.90;;;;;;5032668;28;20060;-73
2023/01/24 03:40:28;;;;;;;25.20;16.90;;;4.90;99.90;;;;;;5033142;28;20501;-73
2023/01/24 03:42:53;;;;;;;25.45;17.65;;;4.90;99.90;;;;;;5033286;28;20025;-73
2023/01/24 03:45:28;;;;;;;22.58;16.52;;;4.90;99.90;;;;;;5033285;28;20573;-73
2023/01/24 03:47:55;;;;;;;26.13;17.67;;;4.90;99.90;;;;;;5031861;28;20029;-73
2023/01/24 03:53:09;;;;;;;24.30;16.92;;;4.80;99.90;;;;;;5033213;28;20129;-73
2023/01/24 03:55:36;;;;;;;24.05;16.48;;;4.80;99.90;;;;;;5031644;28;20049;-73
2023/01/24 03:58:02;;;;;;;25.45;18.40;;;4.80;99.90;;;;;;5032034;28;20491;-73
2023/01/24 04:00:28;;;;;;;23.73;17.17;;;4.80;99.90;;;;;;5032387;28;20446;-73
2023/01/24 04:02:54;;;;;;;25.13;17.40;;;4.80;99.90;;;;;;5033060;28;20033;-73
2023/01/24 04:05:20;;;;;;;26.67;18.23;;;4.90;99.90;;;;;;5015613;28;20048;-73
2023/01/24 04:07:46;;;;;;;27.92;17.83;;;4.90;99.90;;;;;;5031685;28;20036;-73
2023/01/24 04:10:13;;;;;;;27.23;18.05;;;5.00;99.90;;;;;;5032694;28;20386;-73
2023/01/24 04:12:40;;;;;;;27.83;18.45;;;5.00;99.90;;;;;;5032868;28;20101;-73
2023/01/24 04:15:06;;;;;;;25.58;17.70;;;5.00;99.90;;;;;;5032008;28;20045;-73
2023/01/24 04:17:32;;;;;;;26.67;19.73;;;5.00;99.90;;;;;;5032881;28;20037;-73
2023/01/24 04:19:57;;;;;;;26.33;18.42;;;5.00;99.90;;;;;;5031808;28;20030;-73
2023/01/24 04:22:23;;;;;;;28.73;18.85;;;5.00;99.90;;;;;;5031620;28;20175;-73
2023/01/24 04:24:49;;;;;;;28.35;19.38;;;4.90;99.90;;;;;;5014825;28;20040;-73
2023/01/24 04:27:14;;;;;;;26.55;19.08;;;4.90;99.90;;;;;;5031513;28;20034;-73
2023/01/24 04:29:40;;;;;;;25.20;18.85;;;4.80;99.90;;;;;;5031868;28;20030;-73
2023/01/24 04:32:06;;;;;;;25.92;18.63;;;4.80;99.90;;;;;;5032087;28;20037;-73
2023/01/24 04:34:32;;;;;;;25.63;18.17;;;4.90;99.90;;;;;;5032712;28;20061;-73
2023/01/24 04:36:57;;;;;;;30.45;20.25;;;4.80;99.90;;;;;;5016038;28;20037;-73
2023/01/24 04:39:23;;;;;;;27.73;18.63;;;4.80;99.90;;;;;;5035015;28;20033;-73
2023/01/24 04:41:49;;;;;;;27.25;18.95;;;4.70;99.90;;;;;;5033844;28;20435;-73
2023/01/24 04:44:14;;;;;;;26.13;18.63;;;4.70;99.90;;;;;;5034722;28;20112;-73
2023/01/24 04:46:40;;;;;;;29.70;19.27;;;4.70;99.90;;;;;;5032091;28;20037;-74
2023/01/24 04:49:06;;;;;;;28.33;19.65;;;4.80;99.90;;;;;;5031244;28;20026;-73
2023/01/24 04:51:31;;;;;;;28.58;19.88;;;4.80;99.90;;;;;;5031382;28;20033;-73
2023/01/24 04:53:57;;;;;;;26.83;19.05;;;4.80;99.90;;;;;;5032324;28;20034;-73
2023/01/24 04:56:22;;;;;;;26.00;18.52;;;4.80;99.90;;;;;;5032518;28;20049;-73
2023/01/24 04:58:48;;;;;;;29.25;20.60;;;4.80;99.90;;;;;;5031320;28;20465;-73
2023/01/24 05:01:14;;;;;;;29.73;21.17;;;4.80;99.90;;;;;;5032405;28;20032;-73
2023/01/24 05:03:39;;;;;;;29.92;20.23;;;4.80;99.90;;;;;;5014458;28;20045;-73
2023/01/24 05:06:05;;;;;;;31.30;21.83;;;4.70;99.90;;;;;;5032313;28;20125;-73
2023/01/24 05:08:31;;;;;;;31.73;22.10;;;4.70;99.90;;;;;;5031122;28;20354;-73
2023/01/24 05:11:01;;;;;;;31.13;21.63;;;4.50;99.90;;;;;;5034618;28;20037;-74
2023/01/24 05:13:27;;;;;;;31.00;21.65;;;4.40;99.90;;;;;;5036194;28;20029;-73
2023/01/24 05:15:52;;;;;;;30.27;21.42;;;4.30;99.90;;;;;;5034512;28;20467;-73
2023/01/24 05:18:19;;;;;;;30.83;20.90;;;4.30;99.90;;;;;;5035338;28;20043;-73
2023/01/24 05:20:45;;;;;;;29.33;20.60;;;4.40;99.90;;;;;;5035296;28;20018;-73
2023/01/24 05:23:10;;;;;;;28.90;20.30;;;4.50;99.90;;;;;;5018061;28;20036;-73
2023/01/24 05:25:36;;;;;;;29.13;20.75;;;4.60;99.90;;;;;;5035749;28;20120;-73
2023/01/24 05:28:02;;;;;;;32.55;21.77;;;4.60;99.90;;;;;;5018369;28;20033;-73
2023/01/24 05:30:28;;;;;;;31.70;22.13;;;4.60;99.90;;;;;;5035934;28;20458;-73
2023/01/24 05:32:57;;;;;;;33.42;22.70;;;4.60;99.90;;;;;;5035913;28;20132;-73
2023/01/24 05:35:24;;;;;;;32.95;21.63;;;4.40;99.90;;;;;;5036349;28;20137;-73
2023/01/24 05:37:50;;;;;;;33.72;22.75;;;4.30;99.90;;;;;;5035487;28;20030;-72
2023/01/24 05:40:16;;;;;;;33.63;22.55;;;4.30;99.90;;;;;;5035233;28;20036;-73
2023/01/24 05:42:42;;;;;;;32.63;22.08;;;4.30;99.90;;;;;;5034112;28;20056;-73
2023/01/24 05:45:09;;;;;;;29.08;19.73;;;4.30;99.90;;;;;;5035193;28;20033;-73
2023/01/24 05:47:34;;;;;;;31.38;20.90;;;4.20;99.90;;;;;;5035053;28;20611;-73
2023/01/24 05:50:00;;;;;;;32.92;22.02;;;4.30;99.90;;;;;;5034339;28;20041;-73
2023/01/24 05:52:26;;;;;;;31.85;21.92;;;4.30;99.90;;;;;;5035559;28;20030;-73
2023/01/24 05:54:52;;;;;;;22.17;15.85;;;4.40;99.90;;;;;;5017461;28;20034;-72
2023/01/24 05:57:18;;;;;;;25.92;17.45;;;4.50;99.90;;;;;;5035283;28;20478;-72
2023/01/24 05:59:44;;;;;;;28.98;19.75;;;4.70;99.90;;;;;;5017467;28;20033;-73
2023/01/24 06:02:10;;;;;;;29.08;20.25;;;4.80;99.90;;;;;;5034015;28;20045;-73
2023/01/24 06:04:35;;;;;;;30.02;20.15;;;4.70;99.90;;;;;;5034944;28;20037;-73
2023/01/24 06:07:01;;;;;;;28.63;19.88;;;4.50;99.90;;;;;;5017230;28;20152;-73
2023/01/24 06:09:27;;;;;;;30.73;20.00;;;4.50;99.90;;;;;;5035184;28;20030;-73
2023/01/24 06:11:52;;;;;;;28.17;18.85;;;4.50;99.90;;;;;;5034557;28;20032;-72
2023/01/24 06:14:19;;;;;;;30.23;20.60;;;4.40;99.90;;;;;;5033745;28;20470;-74
2023/01/24 06:16:46;;;;;;;30.25;20.05;;;4.50;99.90;;;;;;5033520;28;20040;-72
2023/01/24 06:19:12;;;;;;;29.63;19.73;;;4.60;99.90;;;;;;5034589;28;20029;-71
2023/01/24 06:21:38;;;;;;;28.02;18.35;;;4.80;99.90;;;;;;5017268;28;20029;-72
2023/01/24 06:24:04;;;;;;;24.20;16.98;;;4.90;99.90;;;;;;5034048;28;20466;-71
2023/01/24 06:26:31;;;;;;;26.23;18.08;;;4.90;99.90;;;;;;5036010;28;20079;-72
2023/01/24 06:28:57;;;;;;;26.08;18.83;;;5.00;99.90;;;;;;5035870;28;20037;-72
2023/01/24 06:31:30;;;;;;;25.77;17.70;;;5.10;99.90;;;;;;5034696;28;20038;-71
2023/01/24 06:34:33;;;;;;;24.80;17.67;;;5.20;99.90;;;;;;5033401;28;20022;-72
2023/01/24 06:37:04;;;;;;;27.10;18.48;;;5.30;99.90;;;;;;5034437;28;20030;-71
2023/01/24 06:39:30;;;;;;;26.52;17.92;;;5.40;99.90;;;;;;5034226;28;20025;-72
2023/01/24 06:41:56;;;;;;;28.17;19.77;;;5.40;99.90;;;;;;5034902;28;20413;-72
2023/01/24 06:44:22;;;;;;;26.77;19.67;;;5.30;99.90;;;;;;5032516;28;20033;-71
2023/01/24 06:46:48;;;;;;;25.88;17.98;;;5.30;99.90;;;;;;5034005;28;20037;-72
2023/01/24 06:49:14;;;;;;;29.80;20.13;;;5.30;99.90;;;;;;5016092;28;20124;-71
2023/01/24 06:51:39;;;;;;;27.75;19.75;;;5.30;99.90;;;;;;5034096;28;20034;-71
2023/01/24 06:54:05;;;;;;;29.10;20.52;;;5.30;99.90;;;;;;5016236;28;20428;-71
2023/01/24 06:56:31;;;;;;;28.73;19.88;;;5.10;99.90;;;;;;5016255;28;20151;-72
2023/01/24 06:58:57;;;;;;;30.55;21.38;;;4.90;99.90;;;;;;5034171;28;20481;-72
2023/01/24 07:01:22;;;;;;;29.85;20.95;;;4.60;99.90;;;;;;5016276;28;20056;-72
2023/01/24 07:03:48;;;;;;;27.08;18.70;;;4.30;99.90;;;;;;5032456;28;20183;-72
2023/01/24 07:06:15;;;;;;;27.85;19.52;;;4.00;99.90;;;;;;5016149;28;20044;-72
2023/01/24 07:08:40;;;;;;;29.63;21.27;;;4.20;99.90;;;;;;5032827;28;20450;-71
2023/01/24 07:11:06;;;;;;;26.23;19.05;;;4.40;99.90;;;;;;5032924;28;20037;-72
2023/01/24 07:13:32;;;;;;;31.83;21.70;;;4.60;99.90;;;;;;5032772;28;20025;-72
2023/01/24 07:16:01;;;;;;;28.63;20.13;;;4.70;99.90;;;;;;5032017;28;20308;-72
2023/01/24 07:18:27;;;;;;;29.55;20.67;;;4.70;99.90;;;;;;5033355;28;20045;-72
2023/01/24 07:20:53;;;;;;;30.88;21.40;;;4.90;99.90;;;;;;5016466;28;20486;-71
2023/01/24 07:23:23;;;;;;;29.65;20.42;;;5.00;99.90;;;;;;5033225;28;20195;-72
2023/01/24 07:25:53;;;;;;;26.85;19.55;;;5.00;99.90;;;;;;5033535;28;20021;-72
2023/01/24 07:28:19;;;;;;;32.28;22.10;;;4.90;99.90;;;;;;5033850;28;20037;-71
2023/01/24 07:30:45;;;;;;;31.60;21.42;;;4.90;99.90;;;;;;5033038;28;20060;-72
2023/01/24 07:33:13;;;;;;;26.50;19.30;;;4.90;99.90;;;;;;5033806;28;20072;-72
2023/01/24 07:35:39;;;;;;;29.70;21.05;;;5.00;99.90;;;;;;5033099;28;20506;-72
2023/01/24 07:38:05;;;;;;;33.85;22.45;;;5.00;99.90;;;;;;5015790;28;20030;-72
2023/01/24 07:40:31;;;;;;;30.05;20.88;;;5.00;99.90;;;;;;5032010;28;20108;-72
2023/01/24 07:43:02;;;;;;;30.67;21.08;;;5.10;99.90;;;;;;5015446;28;20060;-69
2023/01/24 07:45:28;;;;;;;24.70;18.23;;;5.10;99.90;;;;;;5033661;28;20494;-70
2023/01/24 07:47:56;;;;;;;30.73;21.23;;;5.00;99.90;;;;;;5033199;28;20124;-69
2023/01/24 07:50:22;;;;;;;24.48;17.60;;;5.10;99.90;;;;;;5033191;28;20036;-70
2023/01/24 07:52:55;;;;;;;22.92;16.75;;;5.10;99.90;;;;;;5015227;28;20060;-70
2023/01/24 07:55:22;;;;;;;27.73;19.58;;;5.20;99.90;;;;;;5033157;28;20128;-69
2023/01/24 07:57:48;;;;;;;24.40;17.33;;;5.40;99.90;;;;;;5015552;28;20083;-70
2023/01/24 08:00:14;;;;;;;29.95;19.83;;;5.50;99.90;;;;;;5033067;28;20045;-70
2023/01/24 08:02:41;;;;;;;27.92;19.55;;;5.50;99.90;;;;;;5031629;28;20072;-70
2023/01/24 08:05:07;;;;;;;26.25;19.33;;;5.30;99.90;;;;;;5031490;28;20065;-70
2023/01/24 08:07:33;;;;;;;25.20;17.98;;;5.20;99.90;;;;;;5032057;28;20446;-70
2023/01/24 08:09:58;;;;;;;27.23;19.70;;;5.20;99.90;;;;;;5032336;28;20048;-70
2023/01/24 08:12:24;;;;;;;29.17;20.38;;;5.10;99.90;;;;;;5033747;28;20104;-73
2023/01/24 08:14:50;;;;;;;27.77;19.45;;;5.00;99.90;;;;;;5035135;28;20033;-74
2023/01/24 08:17:16;;;;;;;23.33;17.67;;;4.90;99.90;;;;;;5033153;28;20026;-75
2023/01/24 08:19:41;;;;;;;26.92;19.48;;;4.90;99.90;;;;;;5033049;28;20033;-76
2023/01/24 08:22:07;;;;;;;26.45;18.85;;;5.00;99.90;;;;;;5031424;28;20080;-73
2023/01/24 08:24:33;;;;;;;26.60;20.00;;;5.00;99.90;;;;;;5015296;28;20041;-73
2023/01/24 08:27:00;;;;;;;24.02;18.13;;;5.00;99.90;;;;;;5031440;28;20068;-72
2023/01/24 08:29:26;;;;;;;26.63;18.90;;;5.00;99.90;;;;;;5015093;28;20037;-71
2023/01/24 08:31:52;;;;;;;28.55;20.05;;;5.10;99.90;;;;;;5032681;28;20029;-71
2023/01/24 08:34:17;;;;;;;26.17;19.20;;;5.20;99.90;;;;;;5032050;28;20037;-71
2023/01/24 08:36:43;;;;;;;28.30;19.90;;;5.20;99.90;;;;;;5030904;28;20471;-71
2023/01/24 08:39:08;;;;;;;28.75;20.10;;;5.20;99.90;;;;;;5031460;28;20125;-72
2023/01/24 08:41:35;;;;;;;27.17;19.27;;;5.10;99.90;;;;;;5014970;28;20037;-72
2023/01/24 08:44:02;;;;;;;28.83;20.67;;;5.20;99.90;;;;;;5033094;28;20068;-72
2023/01/24 08:46:30;;;;;;;27.83;20.35;;;5.10;99.90;;;;;;5036626;28;20080;-72
2023/01/24 08:48:56;;;;;;;26.42;18.88;;;5.10;99.90;;;;;;5036501;28;20033;-72
2023/01/24 08:51:23;;;;;;;28.48;20.08;;;5.10;99.90;;;;;;5036841;28;20048;-72
2023/01/24 08:53:49;;;;;;;25.83;19.20;;;5.20;99.90;;;;;;5035437;28;20029;-72
2023/01/24 08:56:14;;;;;;;29.25;20.52;;;5.20;99.90;;;;;;5035846;28;20478;-74
2023/01/24 08:58:40;;;;;;;27.58;19.83;;;5.30;99.90;;;;;;5035643;28;20042;-76
2023/01/24 09:01:10;;;;;;;27.15;20.15;;;5.10;99.90;;;;;;5018448;28;20463;-74
2023/01/24 09:03:36;;;;;;;26.92;18.88;;;5.20;99.90;;;;;;5034619;28;20116;-75
2023/01/24 09:06:03;;;;;;;24.48;17.63;;;5.20;99.90;;;;;;5036094;28;20095;-75
2023/01/24 09:08:29;;;;;;;25.95;19.10;;;5.10;99.90;;;;;;5036399;28;20033;-77
2023/01/24 09:10:58;;;;;;;28.90;21.13;;;5.00;99.90;;;;;;5036109;28;20099;-75
2023/01/24 09:13:24;;;;;;;28.05;20.33;;;4.90;99.90;;;;;;5034556;28;20424;-76
2023/01/24 09:15:50;;;;;;;26.73;19.50;;;4.90;99.90;;;;;;5018462;28;20045;-75
2023/01/24 09:18:16;;;;;;;24.88;18.77;;;4.80;99.90;;;;;;5036358;28;20040;-75
2023/01/24 09:20:42;;;;;;;26.42;19.17;;;4.80;99.90;;;;;;5034775;28;20374;-75
2023/01/24 09:23:14;;;;;;;26.33;19.42;;;4.90;99.90;;;;;;5035752;28;20025;-75
2023/01/24 09:25:40;;;;;;;29.58;18.92;;;4.90;99.90;;;;;;5034680;28;20049;-75
2023/01/24 09:28:06;;;;;;;23.42;17.80;;;5.00;99.90;;;;;;5035536;28;20043;-75
2023/01/24 09:30:32;;;;;;;24.88;17.38;;;5.00;99.90;;;;;;5034081;28;20033;-74
2023/01/24 09:32:58;;;;;;;25.73;18.38;;;4.90;99.90;;;;;;5018109;28;20033;-74
2023/01/24 09:35:23;;;;;;;28.00;19.02;;;4.80;99.90;;;;;;5034586;28;20087;-75
2023/01/24 09:37:51;;;;;;;25.88;18.60;;;4.80;99.90;;;;;;5034188;28;20033;-75
2023/01/24 09:40:34;;;;;;;25.95;19.08;;;4.70;99.90;;;;;;5034231;28;20346;-74
2023/01/24 09:43:11;;;;;;;26.55;19.83;;;4.80;99.90;;;;;;5034601;28;20171;-75
2023/01/24 09:46:04;;;;;;;28.70;20.30;;;4.70;99.90;;;;;;5034416;28;20065;-76
2023/01/24 09:48:34;;;;;;;25.00;17.80;;;4.50;99.90;;;;;;5024296;28;20044;-76
2023/01/24 09:51:06;;;;;;;33.10;20.33;;;4.50;99.90;;;;;;5034402;28;20125;-75
2023/01/24 09:53:59;;;;;;;28.63;20.17;;;4.60;99.90;;;;;;5036048;28;20030;-73
2023/01/24 09:56:43;;;;;;;27.88;18.77;;;4.70;99.90;;;;;;5032797;28;20045;-72
2023/01/24 09:59:39;;;;;;;27.60;19.45;;;4.70;99.90;;;;;;5037642;28;20041;-73
2023/01/24 10:02:27;;;;;;;29.35;21.35;;;4.80;99.90;;;;;;5034811;28;20036;-76
2023/01/24 10:04:53;;;;;;;30.83;19.95;;;4.50;99.90;;;;;;5034430;28;20044;-75
2023/01/24 10:07:40;;;;;;;26.65;19.77;;;4.60;99.90;;;;;;5017015;28;20132;-76
2023/01/24 10:10:27;;;;;;;24.33;18.02;;;4.50;99.90;;;;;;5034273;28;20037;-74
2023/01/24 10:13:09;;;;;;;26.33;18.63;;;4.50;99.90;;;;;;5035198;28;20025;-72
2023/01/24 10:15:38;;;;;;;25.45;17.92;;;4.60;99.90;;;;;;5035296;28;20040;-71
2023/01/24 10:18:27;;;;;;;27.13;19.55;;;4.60;99.90;;;;;;5034723;28;20033;-71
2023/01/24 10:20:56;;;;;;;27.20;18.80;;;4.70;99.90;;;;;;5034023;28;20032;-71
2023/01/24 10:23:33;;;;;;;24.30;17.50;;;4.60;99.90;;;;;;5035139;28;20021;-71
2023/01/24 10:26:21;;;;;;;27.52;17.50;;;4.70;99.90;;;;;;5034481;28;20037;-71
2023/01/24 10:28:52;;;;;;;25.95;17.42;;;4.70;99.90;;;;;;5034737;28;20060;-70
2023/01/24 10:31:25;;;;;;;22.75;16.98;;;4.90;99.90;;;;;;5034700;28;20026;-71
2023/01/24 10:34:03;;;;;;;22.15;16.55;;;5.10;99.90;;;;;;5034878;28;20115;-71
2023/01/24 10:36:38;;;;;;;23.90;17.90;;;5.10;99.90;;;;;;5034550;28;20033;-71
2023/01/24 10:39:04;;;;;;;20.55;15.95;;;5.20;99.90;;;;;;5034638;28;20040;-71
2023/01/24 10:41:31;;;;;;;24.95;18.38;;;5.20;99.90;;;;;;5034451;28;20029;-71
2023/01/24 10:44:13;;;;;;;24.15;18.15;;;5.20;99.90;;;;;;5032997;28;20086;-74
2023/01/24 10:47:06;;;;;;;27.35;19.02;;;5.00;99.90;;;;;;5033659;28;20033;-75
2023/01/24 10:49:37;;;;;;;25.88;19.15;;;5.00;99.90;;;;;;5033248;28;20029;-75
2023/01/24 10:52:19;;;;;;;23.73;17.88;;;4.80;99.90;;;;;;5033969;28;20030;-74
2023/01/24 10:55:30;;;;;;;27.48;19.20;;;4.80;99.90;;;;;;5034211;28;20044;-75
2023/01/24 10:57:56;;;;;;;25.95;18.88;;;4.80;99.90;;;;;;5033452;28;20111;-72
2023/01/24 11:00:30;;;;;;;25.23;18.95;;;4.90;99.90;;;;;;5033977;28;20454;-71
2023/01/24 11:03:16;;;;;;;26.88;18.25;;;5.00;99.90;;;;;;5034125;28;20032;-70
2023/01/24 11:05:52;;;;;;;22.58;15.68;;;4.90;99.90;;;;;;5034275;28;20116;-70
2023/01/24 11:08:33;;;;;;;24.65;16.60;;;4.90;99.90;;;;;;5033475;28;20018;-70
2023/01/24 11:10:59;;;;;;;24.75;18.40;;;5.10;99.90;;;;;;5032660;28;20094;-71
2023/01/24 11:13:32;;;;;;;22.65;16.75;;;5.20;99.90;;;;;;5032323;28;20493;-70
2023/01/24 11:16:16;;;;;;;;;;;5.20;99.90;;;;;;5034128;28;20030;-71
2023/01/24 11:19:03;;;;;;;25.02;18.00;;;5.30;99.90;;;;;;5033454;28;19924;-71
2023/01/24 11:21:30;;;;;;;24.40;16.90;;;5.30;99.90;;;;;;5033652;28;20112;-71
2023/01/24 11:24:04;;;;;;;22.42;15.65;;;5.30;99.90;;;;;;5033633;28;20033;-70
2023/01/24 11:26:36;;;;;;;17.55;13.77;;;5.30;99.90;;;;;;5031697;28;20037;-70
2023/01/24 11:29:14;;;;;;;23.80;16.17;;;5.40;99.90;;;;;;5033440;28;20521;-71
2023/01/24 11:31:43;;;;;;;24.95;18.35;;;5.50;99.90;;;;;;5033809;28;20129;-70
2023/01/24 11:34:23;;;;;;;20.13;14.65;;;5.50;99.90;;;;;;5032288;28;20029;-71
2023/01/24 11:37:04;;;;;;;24.02;17.02;;;5.40;99.90;;;;;;5032461;28;20124;-70
2023/01/24 11:40:14;;;;;;;23.02;16.85;;;5.50;99.90;;;;;;5034636;28;20084;-71
2023/01/24 11:42:42;;;;;;;21.25;15.57;;;5.40;99.90;;;;;;5005612;28;20091;-70
2023/01/24 11:45:26;;;;;;;19.98;14.60;;;5.40;99.90;;;;;;5036762;28;20060;-70
2023/01/24 11:48:08;;;;;;;20.92;15.00;;;5.50;99.90;;;;;;5033104;28;20428;-70
2023/01/24 11:50:55;;;;;;;21.17;14.88;;;5.50;99.90;;;;;;5032502;28;20120;-70
2023/01/24 11:54:07;;;;;;;18.38;13.90;;;5.70;99.90;;;;;;5032349;28;20061;-70
2023/01/24 11:56:44;;;;;;;20.40;15.23;;;5.70;99.90;;;;;;5031682;28;20110;-70
2023/01/24 11:59:19;;;;;;;21.92;15.93;;;5.70;99.40;;;;;;5031603;28;20103;-71
2023/01/24 12:02:09;;;;;;;18.48;14.02;;;5.60;99.00;;;;;;5032178;28;20032;-69
2023/01/24 12:04:43;;;;;;;19.23;13.63;;;5.60;99.30;;;;;;5032185;28;20084;-70
2023/01/24 12:07:21;;;;;;;19.60;14.15;;;5.50;99.00;;;;;;5031740;28;20064;-71
2023/01/24 12:10:17;;;;;;;19.55;14.32;;;5.40;98.90;;;;;;5033213;28;20076;-71
2023/01/24 12:12:51;;;;;;;18.85;14.18;;;5.30;99.00;;;;;;5033364;28;20064;-69
2023/01/24 12:15:37;;;;;;;17.35;12.70;;;5.20;99.40;;;;;;5033026;28;20026;-70
2023/01/24 12:18:35;;;;;;;19.88;13.50;;;5.30;99.80;;;;;;5032989;28;20060;-70
2023/01/24 12:21:08;;;;;;;19.42;13.10;;;5.30;99.50;;;;;;5035872;28;20458;-70
2023/01/24 12:24:24;;;;;;;16.15;12.50;;;5.30;99.90;;;;;;5036836;28;20025;-71
2023/01/24 12:26:57;;;;;;;18.65;13.48;;;5.30;99.60;;;;;;5014901;28;20069;-69
2023/01/24 12:29:29;;;;;;;20.20;14.60;;;5.30;99.40;;;;;;5033514;28;20462;-70
2023/01/24 12:32:03;;;;;;;18.80;13.70;;;5.20;99.40;;;;;;5035784;28;20033;-72
2023/01/24 12:35:10;;;;;;;21.60;13.55;;;5.20;99.40;;;;;;5035792;28;20029;-72
2023/01/24 12:38:04;;;;;;;18.77;12.60;;;5.20;99.30;;;;;;5016136;28;20515;-71
2023/01/24 12:40:50;;;;;;;18.65;13.35;;;5.10;99.20;;;;;;5036735;28;20117;-71
2023/01/24 12:43:31;;;;;;;17.63;12.43;;;5.00;99.20;;;;;;5037055;28;20026;-71
2023/01/24 12:46:04;;;;;;;15.50;11.38;;;5.00;99.50;;;;;;5036413;28;20087;-71
2023/01/24 12:49:00;;;;;;;16.30;11.88;;;5.10;99.70;;;;;;5036728;28;20029;-73
2023/01/24 12:51:55;;;;;;;16.48;11.50;;;5.20;99.40;;;;;;5014672;28;20037;-73
2023/01/24 12:54:38;;;;;;;15.30;11.50;;;5.30;99.80;;;;;;5034482;28;20112;-76
2023/01/24 12:57:20;;;;;;;16.02;12.15;;;5.30;99.20;;;;;;5037364;28;20071;-75
2023/01/24 12:59:48;;;;;;;16.98;12.55;;;5.30;99.30;;;;;;5036251;28;20105;-75
2023/01/24 13:02:37;;;;;;;15.32;11.80;;;5.30;99.30;;;;;;5035337;28;20338;-74
2023/01/24 13:05:24;;;;;;;17.73;11.98;;;5.30;99.20;;;;;;5034953;28;20033;-75
2023/01/24 13:07:59;;;;;;;16.48;12.35;;;5.30;99.20;;;;;;5036522;28;20029;-74
2023/01/24 13:10:50;;;;;;;15.35;11.73;;;5.30;99.20;;;;;;5036519;28;20540;-74
2023/01/24 13:13:38;;;;;;;16.80;12.20;;;5.30;99.30;;;;;;5035947;28;20026;-75
2023/01/24 13:16:09;;;;;;;14.23;10.43;;;5.30;99.60;;;;;;5035423;28;20042;-75
2023/01/24 13:18:44;;;;;;;16.17;11.75;;;5.40;99.60;;;;;;5035662;28;20025;-75
2023/01/24 13:21:20;;;;;;;15.35;11.60;;;5.50;99.40;;;;;;5036597;28;20033;-75
2023/01/24 13:24:01;;;;;;;19.95;12.68;;;5.50;99.00;;;;;;5035593;28;20032;-74
2023/01/24 13:26:36;;;;;;;14.15;11.18;;;5.50;99.00;;;;;;5036122;28;20037;-75
2023/01/24 13:29:44;;;;;;;14.60;10.38;;;5.50;99.00;;;;;;5036377;28;20032;-74
2023/01/24 13:32:11;;;;;;;17.23;12.15;;;5.60;98.90;;;;;;5034735;28;20123;-74
2023/01/24 13:34:55;;;;;;;16.40;11.82;;;5.50;98.50;;;;;;5034321;28;20099;-74